TimeCDT,TemperatureF,Dew PointF,Humidity,Sea Level PressureIn,VisibilityMPH,Wind Direction,Wind SpeedMPH,Gust SpeedMPH,PrecipitationIn,Events,Conditions,WindDirDegrees,DateUTC
12:32 AM,21.0,10.0,63,30.49,10.0,North,16.1,25.3,N/A,,Partly Cloudy,350,2014-03-23 05:32:00
12:53 AM,21.0,10.0,63,30.53,10.0,North,17.3,-,N/A,,Partly Cloudy,360,2014-03-23 05:53:00
1:53 AM,19.9,10.0,65,30.54,10.0,North,12.7,-,N/A,,Clear,350,2014-03-23 06:53:00
2:53 AM,19.0,9.0,65,30.55,10.0,North,11.5,-,N/A,,Clear,350,2014-03-23 07:53:00
3:53 AM,18.0,8.1,65,30.54,10.0,North,11.5,-,N/A,,Clear,350,2014-03-23 08:53:00
4:53 AM,17.1,8.1,68,30.54,10.0,North,8.1,-,N/A,,Clear,350,2014-03-23 09:53:00
5:53 AM,16.0,7.0,68,30.55,10.0,North,11.5,-,N/A,,Clear,350,2014-03-23 10:53:00
6:53 AM,15.1,7.0,70,30.56,10.0,NNW,9.2,-,N/A,,Clear,330,2014-03-23 11:53:00
7:53 AM,16.0,8.1,71,30.56,10.0,NNW,8.1,-,N/A,,Clear,340,2014-03-23 12:53:00
8:53 AM,18.0,8.1,65,30.57,10.0,NNW,9.2,-,N/A,,Clear,340,2014-03-23 13:53:00
9:53 AM,21.0,7.0,55,30.57,10.0,North,9.2,-,N/A,,Clear,350,2014-03-23 14:53:00
10:53 AM,21.9,6.1,51,30.56,10.0,NNW,9.2,-,N/A,,Clear,330,2014-03-23 15:53:00
11:53 AM,24.1,6.1,46,30.55,10.0,NNW,10.4,-,N/A,,Clear,340,2014-03-23 16:53:00
12:53 PM,26.1,7.0,44,30.53,10.0,NNW,8.1,-,N/A,,Clear,330,2014-03-23 17:53:00
1:53 PM,28.9,7.0,40,30.51,10.0,Variable,5.8,-,N/A,,Scattered Clouds,0,2014-03-23 18:53:00
2:53 PM,30.0,7.0,38,30.48,10.0,Variable,6.9,-,N/A,,Partly Cloudy,0,2014-03-23 19:53:00
3:53 PM,28.9,7.0,40,30.45,10.0,Calm,Calm,-,N/A,,Partly Cloudy,0,2014-03-23 20:53:00
4:53 PM,32.0,8.1,37,30.42,10.0,North,8.1,-,N/A,,Clear,10,2014-03-23 21:53:00
5:53 PM,30.9,9.0,40,30.41,10.0,NW,3.5,-,N/A,,Clear,310,2014-03-23 22:53:00
6:53 PM,28.9,10.0,45,30.40,10.0,NE,5.8,-,N/A,,Clear,40,2014-03-23 23:53:00
7:53 PM,27.0,12.0,53,30.39,10.0,ENE,5.8,-,N/A,,Clear,60,2014-03-24 00:53:00
8:53 PM,26.1,14.0,60,30.40,10.0,ESE,4.6,-,N/A,,Clear,110,2014-03-24 01:53:00
9:53 PM,26.1,14.0,60,30.40,10.0,East,5.8,-,N/A,,Overcast,100,2014-03-24 02:53:00
10:53 PM,26.1,12.9,58,30.41,10.0,ESE,6.9,-,N/A,,Overcast,120,2014-03-24 03:53:00
11:53 PM,26.1,12.9,58,30.41,10.0,SE,4.6,-,N/A,,Overcast,130,2014-03-24 04:53:00